EW8511 Weather Reports


Display with metric or nautical units.
time (UTC)temp
F
wind
direction
speed
MPH
gust
MPH
rain 1hr
in
rain 24hr
in
rain mn
in
humidity
%
barometer
mb
20191014083030 31 291 3.0 12.0 0.00 0.20 0.00 93 1013.2
20191014081615 31 275 1.0 9.0 0.00 0.20 0.00 93 1013.1
20191014080154 31 304 2.0 9.0 0.00 0.20 0.00 93 1013.0
20191014073056 31 306 2.0 6.0 0.00 0.20 0.00 93 1012.9
20191014071502 32 294 2.0 9.0 0.00 0.20 0.00 93 1012.8
20191014070115 31 284 3.0 8.0 0.00 0.20 0.00 93 1012.7
20191014064508 31 254 3.0 8.0 0.00 0.20 0.00 93 1012.6
20191014063116 31 280 2.0 8.0 0.00 0.20 0.00 93 1012.5
20191014060242 31 319 2.0 5.0 0.00 0.20 0.00 93 1012.3
20191014054514 31 236 1.0 7.0 0.00 0.20 0.00 93 1012.1
20191014053207 31 293 2.0 7.0 0.00 0.20 0.00 93 1012.1
20191014051607 32 286 2.0 6.0 0.00 0.20 0.00 93 1012.0
20191014044617 32 280 2.0 6.0 0.00 0.21 0.20 93 1012.0
20191014043004 31 271 2.0 7.0 0.00 0.21 0.20 93 1011.9
20191014041636 31 275 2.0 4.0 0.00 0.21 0.20 93 1011.8
20191014040030 32 287 1.0 5.0 0.00 0.21 0.20 93 1011.7
20191014034754 32 289 2.0 6.0 0.00 0.21 0.20 93 1011.8
20191014033212 32 281 1.0 4.0 0.00 0.21 0.20 93 1011.8
20191014031503 32 296 1.0 7.0 0.00 0.21 0.20 93 1011.7
20191014030210 33 286 2.0 7.0 0.00 0.21 0.20 93 1011.4
20191014024620 33 271 2.0 7.0 0.00 0.21 0.20 93 1011.2
20191014023117 33 309 2.0 8.0 0.00 0.21 0.20 93 1011.2
20191014021555 33 296 3.0 9.0 0.00 0.21 0.20 93 1011.1
20191014014602 34 277 2.0 5.0 0.00 0.21 0.20 92 1010.9
20191014013040 34 273 2.0 8.0 0.00 0.21 0.20 92 1010.7
20191014011708 34 306 2.0 8.0 0.00 0.21 0.20 93 1010.5
20191014010103 34 318 4.0 10.0 0.00 0.21 0.20 92 1010.4
20191014004804 34 294 3.0 7.0 0.00 0.21 0.20 92 1010.4
20191014003144 34 296 2.0 5.0 0.01 0.21 0.20 92 1010.2
20191014000116 35 332 1.0 4.0 0.01 0.21 0.20 91 1009.7
20191013233134 36 292 0.0 2.0 0.02 0.20 0.19 90 1009.1
20191013231542 36 287 1.0 5.0 0.02 0.20 0.19 89 1009.0
20191013230152 37 333 1.0 9.0 0.02 0.20 0.19 87 1008.8
20191013224536 40 300 7.0 21.0 0.01 0.20 0.18 81 1008.8
20191013223209 41 285 3.0 10.0 0.00 0.19 0.17 78 1008.1
20191013221636 41 296 2.0 13.0 0.00 0.19 0.17 75 1007.9
20191013214616 42 301 5.0 11.0 0.00 0.20 0.17 76 1007.3
20191013211534 42 331 6.0 15.0 0.01 0.20 0.17 80 1006.9
20191013204556 41 306 3.0 11.0 0.02 0.22 0.17 88 1006.6
20191013201627 37 250 5.0 12.0 0.01 0.21 0.16 87 1006.4
20191013200008 40 336 3.0 10.0 0.01 0.20 0.15 87 1006.3
20191013194645 42 5 3.0 12.0 0.01 0.23 0.15 83 1006.0
20191013193031 42 258 2.0 8.0 0.01 0.23 0.15 87 1005.8
20191013191804 41 355 2.0 8.0 0.01 0.23 0.15 91 1005.8
20191013190108 40 325 2.0 14.0 0.00 0.22 0.14 85 1005.7
20191013183115 39 294 2.0 6.0 0.00 0.25 0.14 89 1005.4
20191013180116 40 286 4.0 14.0 0.01 0.25 0.14 88 1005.2
20191013173054 39 271 5.0 11.0 0.02 0.28 0.14 91 1005.2
20191013171507 38 253 4.0 20.0 0.04 0.28 0.14 91 1005.1
20191013170129 37 285 3.0 11.0 0.04 0.27 0.13 91 1005.0
20191013164520 37 238 4.0 11.0 0.05 0.27 0.12 92 1004.9
20191013163142 37 277 4.0 11.0 0.06 0.27 0.12 92 1004.8
20191013161558 36 355 5.0 12.0 0.06 0.25 0.10 93 1004.7
20191013154639 35 292 3.0 14.0 0.06 0.23 0.07 93 1004.5
20191013151551 35 284 3.0 12.0 0.04 0.20 0.04 94 1004.2
20191013150006 35 268 4.0 11.0 0.02 0.18 0.02 94 1004.0
20191013144656 34 261 4.0 10.0 0.01 0.17 0.01 94 1003.7
20191013143006 34 272 2.0 11.0 0.00 0.16 0.00 94 1003.7
20191013141614 34 244 2.0 8.0 0.00 0.16 0.00 94 1003.5
20191013140012 34 312 1.0 6.0 0.00 0.16 0.00 94 1003.4
20191013134650 34 285 2.0 10.0 0.00 0.16 0.00 94 1003.3
20191013133016 34 288 2.0 7.0 0.00 0.16 0.00 94 1003.2
20191013131621 33 268 2.0 8.0 0.00 0.16 0.00 94 1003.0
20191013130050 33 279 2.0 6.0 0.00 0.16 0.00 94 1002.9
20191013123054 33 226 2.0 8.0 0.00 0.16 0.00 94 1002.6
20191013121508 33 207 1.0 4.0 0.00 0.16 0.00 94 1002.5
20191013120315 33 291 1.0 5.0 0.00 0.16 0.00 94 1002.5
20191013114600 33 250 1.0 7.0 0.00 0.16 0.00 94 1002.4
20191013113211 33 274 0.0 6.0 0.00 0.16 0.00 94 1002.3
20191013111627 33 277 0.0 4.0 0.00 0.16 0.00 94 1002.3
20191013104619 33 273 0.0 7.0 0.00 0.16 0.00 93 1002.3
20191013103002 33 222 0.0 4.0 0.00 0.16 0.00 94 1002.1
20191013101606 33 314 1.0 4.0 0.00 0.16 0.00 94 1002.0
20191013100027 33 267 1.0 4.0 0.00 0.16 0.00 94 1001.9
20191013094600 33 246 1.0 4.0 0.00 0.16 0.00 93 1001.8
20191013093033 33 165 0.0 4.0 0.00 0.16 0.00 93 1001.7
20191013090130 33 213 1.0 3.0 0.00 0.16 0.00 93 1001.6
20191013083124 33 250 1.0 6.0 0.00 0.16 0.00 93 1001.7